sensor_id;sensor_type;location;lat;lon;timestamp;P1;durP1;ratioP1;P2;durP2;ratioP2
68216;SDS011;55037;52.354;4.992;2024-03-08T00:00:06;17.73;;;8.05;;
68216;SDS011;55037;52.354;4.992;2024-03-08T00:02:39;19.33;;;8.52;;
68216;SDS011;55037;52.354;4.992;2024-03-08T00:05:10;13.15;;;6.68;;
68216;SDS011;55037;52.354;4.992;2024-03-08T00:07:39;12.77;;;7.33;;
68216;SDS011;55037;52.354;4.992;2024-03-08T00:10:07;17.05;;;8.27;;
68216;SDS011;55037;52.354;4.992;2024-03-08T00:12:41;18.67;;;7.25;;
68216;SDS011;55037;52.354;4.992;2024-03-08T00:15:11;27.73;;;8.07;;
68216;SDS011;55037;52.354;4.992;2024-03-08T00:17:43;14.15;;;7.38;;
68216;SDS011;55037;52.354;4.992;2024-03-08T00:20:11;13.70;;;7.23;;
68216;SDS011;55037;52.354;4.992;2024-03-08T00:22:40;11.18;;;6.70;;
68216;SDS011;55037;52.354;4.992;2024-03-08T00:25:08;16.05;;;8.43;;
68216;SDS011;55037;52.354;4.992;2024-03-08T00:27:36;17.23;;;8.50;;
68216;SDS011;55037;52.354;4.992;2024-03-08T00:30:05;12.13;;;6.70;;
68216;SDS011;55037;52.354;4.992;2024-03-08T00:32:33;15.70;;;7.07;;
68216;SDS011;55037;52.354;4.992;2024-03-08T00:35:03;15.82;;;8.40;;
68216;SDS011;55037;52.354;4.992;2024-03-08T00:37:30;13.27;;;7.50;;
68216;SDS011;55037;52.354;4.992;2024-03-08T00:39:58;13.38;;;7.60;;
68216;SDS011;55037;52.354;4.992;2024-03-08T00:42:26;11.65;;;5.90;;
68216;SDS011;55037;52.354;4.992;2024-03-08T00:44:53;20.33;;;8.23;;
68216;SDS011;55037;52.354;4.992;2024-03-08T00:47:21;15.90;;;7.22;;
68216;SDS011;55037;52.354;4.992;2024-03-08T00:49:49;12.65;;;6.60;;
68216;SDS011;55037;52.354;4.992;2024-03-08T00:52:17;15.52;;;8.20;;
68216;SDS011;55037;52.354;4.992;2024-03-08T00:54:45;13.95;;;7.22;;
68216;SDS011;55037;52.354;4.992;2024-03-08T00:57:12;11.40;;;5.87;;
68216;SDS011;55037;52.354;4.992;2024-03-08T00:59:40;16.48;;;6.78;;
68216;SDS011;55037;52.354;4.992;2024-03-08T01:02:08;12.18;;;6.10;;
68216;SDS011;55037;52.354;4.992;2024-03-08T01:04:36;14.75;;;7.65;;
68216;SDS011;55037;52.354;4.992;2024-03-08T01:07:03;11.35;;;5.63;;
68216;SDS011;55037;52.354;4.992;2024-03-08T01:09:31;19.93;;;9.87;;
68216;SDS011;55037;52.354;4.992;2024-03-08T01:11:59;15.35;;;8.13;;
68216;SDS011;55037;52.354;4.992;2024-03-08T01:14:27;18.77;;;7.93;;
68216;SDS011;55037;52.354;4.992;2024-03-08T01:16:56;12.02;;;5.75;;
68216;SDS011;55037;52.354;4.992;2024-03-08T01:19:24;14.73;;;8.23;;
68216;SDS011;55037;52.354;4.992;2024-03-08T01:21:52;18.27;;;7.87;;
68216;SDS011;55037;52.354;4.992;2024-03-08T01:24:22;16.33;;;7.88;;
68216;SDS011;55037;52.354;4.992;2024-03-08T01:26:49;14.85;;;7.88;;
68216;SDS011;55037;52.354;4.992;2024-03-08T01:29:17;14.02;;;7.53;;
68216;SDS011;55037;52.354;4.992;2024-03-08T01:31:45;11.88;;;5.53;;
68216;SDS011;55037;52.354;4.992;2024-03-08T01:34:12;15.00;;;7.87;;
68216;SDS011;55037;52.354;4.992;2024-03-08T01:36:40;13.82;;;6.40;;
68216;SDS011;55037;52.354;4.992;2024-03-08T01:39:07;17.17;;;8.27;;
68216;SDS011;55037;52.354;4.992;2024-03-08T01:41:36;11.82;;;6.15;;
68216;SDS011;55037;52.354;4.992;2024-03-08T01:44:03;12.80;;;7.20;;
68216;SDS011;55037;52.354;4.992;2024-03-08T01:46:33;16.80;;;8.83;;
68216;SDS011;55037;52.354;4.992;2024-03-08T01:49:02;14.50;;;7.43;;
68216;SDS011;55037;52.354;4.992;2024-03-08T01:51:30;10.93;;;5.75;;
68216;SDS011;55037;52.354;4.992;2024-03-08T01:53:58;13.57;;;7.70;;
68216;SDS011;55037;52.354;4.992;2024-03-08T01:56:27;11.70;;;5.65;;
68216;SDS011;55037;52.354;4.992;2024-03-08T01:58:54;14.90;;;7.33;;
68216;SDS011;55037;52.354;4.992;2024-03-08T02:01:22;14.93;;;7.50;;
68216;SDS011;55037;52.354;4.992;2024-03-08T02:03:50;20.70;;;8.13;;
68216;SDS011;55037;52.354;4.992;2024-03-08T02:06:18;13.10;;;6.63;;
68216;SDS011;55037;52.354;4.992;2024-03-08T02:08:46;15.13;;;8.25;;
68216;SDS011;55037;52.354;4.992;2024-03-08T02:11:14;16.27;;;8.67;;
68216;SDS011;55037;52.354;4.992;2024-03-08T02:13:42;14.35;;;7.35;;
68216;SDS011;55037;52.354;4.992;2024-03-08T02:16:10;16.17;;;6.93;;
68216;SDS011;55037;52.354;4.992;2024-03-08T02:18:41;14.85;;;7.85;;
68216;SDS011;55037;52.354;4.992;2024-03-08T02:21:08;11.55;;;6.05;;
68216;SDS011;55037;52.354;4.992;2024-03-08T02:23:36;15.83;;;9.00;;
68216;SDS011;55037;52.354;4.992;2024-03-08T02:26:04;14.05;;;7.13;;
68216;SDS011;55037;52.354;4.992;2024-03-08T02:28:32;11.07;;;6.15;;
68216;SDS011;55037;52.354;4.992;2024-03-08T02:31:00;17.63;;;8.60;;
68216;SDS011;55037;52.354;4.992;2024-03-08T02:33:28;15.90;;;8.60;;
68216;SDS011;55037;52.354;4.992;2024-03-08T02:35:56;8.90;;;5.43;;
68216;SDS011;55037;52.354;4.992;2024-03-08T02:38:24;15.82;;;8.30;;
68216;SDS011;55037;52.354;4.992;2024-03-08T02:40:53;14.32;;;7.78;;
68216;SDS011;55037;52.354;4.992;2024-03-08T02:43:21;14.15;;;7.70;;
68216;SDS011;55037;52.354;4.992;2024-03-08T02:45:50;12.68;;;6.78;;
68216;SDS011;55037;52.354;4.992;2024-03-08T02:48:19;10.97;;;6.47;;
68216;SDS011;55037;52.354;4.992;2024-03-08T02:50:48;12.13;;;7.28;;
68216;SDS011;55037;52.354;4.992;2024-03-08T02:53:17;17.00;;;9.05;;
68216;SDS011;55037;52.354;4.992;2024-03-08T02:55:45;16.50;;;7.93;;
68216;SDS011;55037;52.354;4.992;2024-03-08T02:58:13;17.55;;;8.93;;
68216;SDS011;55037;52.354;4.992;2024-03-08T03:00:41;18.23;;;7.57;;
68216;SDS011;55037;52.354;4.992;2024-03-08T03:03:11;12.95;;;6.63;;
68216;SDS011;55037;52.354;4.992;2024-03-08T03:05:39;12.57;;;7.10;;
68216;SDS011;55037;52.354;4.992;2024-03-08T03:08:11;14.95;;;6.95;;
68216;SDS011;55037;52.354;4.992;2024-03-08T03:10:40;22.30;;;9.02;;
68216;SDS011;55037;52.354;4.992;2024-03-08T03:13:07;14.73;;;8.03;;
68216;SDS011;55037;52.354;4.992;2024-03-08T03:15:35;13.85;;;6.35;;
68216;SDS011;55037;52.354;4.992;2024-03-08T03:18:03;12.27;;;6.70;;
68216;SDS011;55037;52.354;4.992;2024-03-08T03:20:35;13.88;;;7.57;;
68216;SDS011;55037;52.354;4.992;2024-03-08T03:23:09;20.08;;;9.10;;
68216;SDS011;55037;52.354;4.992;2024-03-08T03:25:40;16.00;;;7.27;;
68216;SDS011;55037;52.354;4.992;2024-03-08T03:28:08;13.68;;;7.78;;
68216;SDS011;55037;52.354;4.992;2024-03-08T03:30:38;15.77;;;8.18;;
68216;SDS011;55037;52.354;4.992;2024-03-08T03:33:06;16.00;;;8.05;;
68216;SDS011;55037;52.354;4.992;2024-03-08T03:35:35;21.80;;;7.50;;
68216;SDS011;55037;52.354;4.992;2024-03-08T03:38:03;18.90;;;10.03;;
68216;SDS011;55037;52.354;4.992;2024-03-08T03:40:37;15.98;;;9.07;;
68216;SDS011;55037;52.354;4.992;2024-03-08T03:43:05;13.27;;;7.18;;
68216;SDS011;55037;52.354;4.992;2024-03-08T03:45:33;15.68;;;9.13;;
68216;SDS011;55037;52.354;4.992;2024-03-08T03:48:03;12.65;;;7.28;;
68216;SDS011;55037;52.354;4.992;2024-03-08T03:50:31;20.47;;;7.03;;
68216;SDS011;55037;52.354;4.992;2024-03-08T03:53:02;13.27;;;8.20;;
68216;SDS011;55037;52.354;4.992;2024-03-08T03:55:29;11.45;;;6.03;;
68216;SDS011;55037;52.354;4.992;2024-03-08T03:57:57;15.02;;;7.43;;
68216;SDS011;55037;52.354;4.992;2024-03-08T04:00:27;15.80;;;8.68;;
68216;SDS011;55037;52.354;4.992;2024-03-08T04:02:55;13.33;;;7.70;;
68216;SDS011;55037;52.354;4.992;2024-03-08T04:05:25;16.15;;;6.97;;
68216;SDS011;55037;52.354;4.992;2024-03-08T04:07:53;17.08;;;6.22;;
68216;SDS011;55037;52.354;4.992;2024-03-08T04:10:21;12.23;;;6.97;;
68216;SDS011;55037;52.354;4.992;2024-03-08T04:12:49;15.10;;;7.70;;
68216;SDS011;55037;52.354;4.992;2024-03-08T04:15:16;17.87;;;8.60;;
68216;SDS011;55037;52.354;4.992;2024-03-08T04:17:44;13.35;;;7.20;;
68216;SDS011;55037;52.354;4.992;2024-03-08T04:20:12;22.33;;;11.43;;
68216;SDS011;55037;52.354;4.992;2024-03-08T04:22:41;17.80;;;9.02;;
68216;SDS011;55037;52.354;4.992;2024-03-08T04:25:11;10.07;;;6.15;;
68216;SDS011;55037;52.354;4.992;2024-03-08T04:27:38;19.47;;;9.33;;
68216;SDS011;55037;52.354;4.992;2024-03-08T04:30:07;12.13;;;7.57;;
68216;SDS011;55037;52.354;4.992;2024-03-08T04:32:35;18.27;;;7.18;;
68216;SDS011;55037;52.354;4.992;2024-03-08T04:35:03;16.40;;;8.35;;
68216;SDS011;55037;52.354;4.992;2024-03-08T04:37:31;11.75;;;7.57;;
68216;SDS011;55037;52.354;4.992;2024-03-08T04:39:58;14.07;;;7.57;;
68216;SDS011;55037;52.354;4.992;2024-03-08T04:42:29;13.88;;;8.00;;
68216;SDS011;55037;52.354;4.992;2024-03-08T04:44:59;16.55;;;8.40;;
68216;SDS011;55037;52.354;4.992;2024-03-08T04:47:27;11.38;;;7.32;;
68216;SDS011;55037;52.354;4.992;2024-03-08T04:49:55;12.48;;;7.65;;
68216;SDS011;55037;52.354;4.992;2024-03-08T04:52:23;13.47;;;6.57;;
68216;SDS011;55037;52.354;4.992;2024-03-08T04:54:51;13.10;;;6.85;;
68216;SDS011;55037;52.354;4.992;2024-03-08T04:57:19;16.05;;;9.32;;
68216;SDS011;55037;52.354;4.992;2024-03-08T04:59:46;12.30;;;7.00;;
68216;SDS011;55037;52.354;4.992;2024-03-08T05:02:15;18.20;;;8.80;;
68216;SDS011;55037;52.354;4.992;2024-03-08T05:04:42;11.47;;;6.37;;
68216;SDS011;55037;52.354;4.992;2024-03-08T05:07:10;12.55;;;7.50;;
68216;SDS011;55037;52.354;4.992;2024-03-08T05:09:37;18.77;;;8.75;;
68216;SDS011;55037;52.354;4.992;2024-03-08T05:12:07;15.35;;;7.53;;
68216;SDS011;55037;52.354;4.992;2024-03-08T05:14:34;17.60;;;10.13;;
68216;SDS011;55037;52.354;4.992;2024-03-08T05:17:02;19.77;;;9.57;;
68216;SDS011;55037;52.354;4.992;2024-03-08T05:19:30;16.48;;;8.38;;
68216;SDS011;55037;52.354;4.992;2024-03-08T05:22:01;17.27;;;9.80;;
68216;SDS011;55037;52.354;4.992;2024-03-08T05:24:29;14.85;;;7.68;;
68216;SDS011;55037;52.354;4.992;2024-03-08T05:26:57;16.55;;;8.38;;
68216;SDS011;55037;52.354;4.992;2024-03-08T05:29:27;13.07;;;7.93;;
68216;SDS011;55037;52.354;4.992;2024-03-08T05:31:55;13.73;;;7.00;;
68216;SDS011;55037;52.354;4.992;2024-03-08T05:34:25;16.73;;;8.20;;
68216;SDS011;55037;52.354;4.992;2024-03-08T05:36:55;11.20;;;7.07;;
68216;SDS011;55037;52.354;4.992;2024-03-08T05:39:24;10.38;;;5.93;;
68216;SDS011;55037;52.354;4.992;2024-03-08T05:41:52;15.43;;;8.03;;
68216;SDS011;55037;52.354;4.992;2024-03-08T05:44:21;17.25;;;10.13;;
68216;SDS011;55037;52.354;4.992;2024-03-08T05:46:49;14.05;;;7.00;;
68216;SDS011;55037;52.354;4.992;2024-03-08T05:49:17;15.20;;;8.10;;
68216;SDS011;55037;52.354;4.992;2024-03-08T05:51:45;15.70;;;7.18;;
68216;SDS011;55037;52.354;4.992;2024-03-08T05:54:14;12.33;;;6.27;;
68216;SDS011;55037;52.354;4.992;2024-03-08T05:56:45;16.02;;;9.05;;
68216;SDS011;55037;52.354;4.992;2024-03-08T05:59:14;15.90;;;7.00;;
68216;SDS011;55037;52.354;4.992;2024-03-08T06:01:42;15.25;;;7.78;;
68216;SDS011;55037;52.354;4.992;2024-03-08T06:04:10;10.38;;;7.15;;
68216;SDS011;55037;52.354;4.992;2024-03-08T06:06:38;21.77;;;9.30;;
68216;SDS011;55037;52.354;4.992;2024-03-08T06:09:07;17.33;;;9.20;;
68216;SDS011;55037;52.354;4.992;2024-03-08T06:11:39;19.45;;;9.07;;
68216;SDS011;55037;52.354;4.992;2024-03-08T06:14:08;15.55;;;8.15;;
68216;SDS011;55037;52.354;4.992;2024-03-08T06:16:35;12.00;;;6.85;;
68216;SDS011;55037;52.354;4.992;2024-03-08T06:19:03;15.13;;;7.67;;
68216;SDS011;55037;52.354;4.992;2024-03-08T06:21:30;12.52;;;6.97;;
68216;SDS011;55037;52.354;4.992;2024-03-08T06:23:59;15.95;;;7.82;;
68216;SDS011;55037;52.354;4.992;2024-03-08T06:26:27;15.93;;;8.50;;
68216;SDS011;55037;52.354;4.992;2024-03-08T06:28:57;10.75;;;6.57;;
68216;SDS011;55037;52.354;4.992;2024-03-08T06:31:25;9.30;;;6.30;;
68216;SDS011;55037;52.354;4.992;2024-03-08T06:33:53;13.57;;;5.95;;
68216;SDS011;55037;52.354;4.992;2024-03-08T06:36:24;21.45;;;10.70;;
68216;SDS011;55037;52.354;4.992;2024-03-08T06:38:52;14.98;;;8.43;;
68216;SDS011;55037;52.354;4.992;2024-03-08T06:41:20;10.30;;;6.47;;
68216;SDS011;55037;52.354;4.992;2024-03-08T06:43:48;17.57;;;9.13;;
68216;SDS011;55037;52.354;4.992;2024-03-08T06:46:18;19.88;;;11.60;;
68216;SDS011;55037;52.354;4.992;2024-03-08T06:48:47;14.48;;;8.35;;
68216;SDS011;55037;52.354;4.992;2024-03-08T06:51:16;19.33;;;10.43;;
68216;SDS011;55037;52.354;4.992;2024-03-08T06:53:44;16.52;;;8.02;;
68216;SDS011;55037;52.354;4.992;2024-03-08T06:56:12;24.20;;;10.30;;
68216;SDS011;55037;52.354;4.992;2024-03-08T06:58:40;13.38;;;7.00;;
68216;SDS011;55037;52.354;4.992;2024-03-08T07:01:07;15.02;;;9.10;;
68216;SDS011;55037;52.354;4.992;2024-03-08T07:03:41;14.60;;;7.40;;
68216;SDS011;55037;52.354;4.992;2024-03-08T07:06:12;13.02;;;7.20;;
68216;SDS011;55037;52.354;4.992;2024-03-08T07:08:42;17.37;;;8.60;;
68216;SDS011;55037;52.354;4.992;2024-03-08T07:11:12;15.88;;;8.23;;
68216;SDS011;55037;52.354;4.992;2024-03-08T07:13:42;15.13;;;7.93;;
68216;SDS011;55037;52.354;4.992;2024-03-08T07:16:10;17.73;;;8.68;;
68216;SDS011;55037;52.354;4.992;2024-03-08T07:18:38;16.20;;;9.52;;
68216;SDS011;55037;52.354;4.992;2024-03-08T07:21:10;12.80;;;7.80;;
68216;SDS011;55037;52.354;4.992;2024-03-08T07:23:38;16.40;;;8.45;;
68216;SDS011;55037;52.354;4.992;2024-03-08T07:26:25;18.50;;;8.80;;
68216;SDS011;55037;52.354;4.992;2024-03-08T07:28:53;18.83;;;10.13;;
68216;SDS011;55037;52.354;4.992;2024-03-08T07:31:21;14.30;;;8.15;;
68216;SDS011;55037;52.354;4.992;2024-03-08T07:33:52;17.37;;;9.23;;
68216;SDS011;55037;52.354;4.992;2024-03-08T07:36:20;14.05;;;7.43;;
68216;SDS011;55037;52.354;4.992;2024-03-08T07:38:49;13.70;;;6.93;;
68216;SDS011;55037;52.354;4.992;2024-03-08T07:41:16;16.23;;;9.85;;
68216;SDS011;55037;52.354;4.992;2024-03-08T07:43:44;14.55;;;8.52;;
68216;SDS011;55037;52.354;4.992;2024-03-08T07:46:11;17.07;;;9.57;;
68216;SDS011;55037;52.354;4.992;2024-03-08T07:48:40;15.85;;;8.75;;
68216;SDS011;55037;52.354;4.992;2024-03-08T07:51:07;15.35;;;8.60;;
68216;SDS011;55037;52.354;4.992;2024-03-08T07:53:36;15.15;;;8.63;;
68216;SDS011;55037;52.354;4.992;2024-03-08T07:56:05;14.35;;;8.23;;
68216;SDS011;55037;52.354;4.992;2024-03-08T07:58:32;13.80;;;8.60;;
68216;SDS011;55037;52.354;4.992;2024-03-08T08:01:01;14.38;;;8.68;;
68216;SDS011;55037;52.354;4.992;2024-03-08T08:03:29;17.08;;;8.57;;
68216;SDS011;55037;52.354;4.992;2024-03-08T08:05:57;21.33;;;11.48;;
68216;SDS011;55037;52.354;4.992;2024-03-08T08:08:24;18.38;;;8.18;;
68216;SDS011;55037;52.354;4.992;2024-03-08T08:10:53;16.80;;;9.10;;
68216;SDS011;55037;52.354;4.992;2024-03-08T08:13:20;14.50;;;9.52;;
68216;SDS011;55037;52.354;4.992;2024-03-08T08:15:49;17.42;;;9.98;;
68216;SDS011;55037;52.354;4.992;2024-03-08T08:18:17;19.13;;;11.40;;
68216;SDS011;55037;52.354;4.992;2024-03-08T08:20:46;15.60;;;10.02;;
68216;SDS011;55037;52.354;4.992;2024-03-08T08:23:14;15.20;;;9.03;;
68216;SDS011;55037;52.354;4.992;2024-03-08T08:25:41;11.90;;;7.55;;
68216;SDS011;55037;52.354;4.992;2024-03-08T08:28:09;12.55;;;8.43;;
68216;SDS011;55037;52.354;4.992;2024-03-08T08:30:39;15.57;;;8.60;;
68216;SDS011;55037;52.354;4.992;2024-03-08T08:33:06;20.33;;;10.10;;
68216;SDS011;55037;52.354;4.992;2024-03-08T08:35:35;15.03;;;8.60;;
68216;SDS011;55037;52.354;4.992;2024-03-08T08:38:03;16.80;;;10.05;;
68216;SDS011;55037;52.354;4.992;2024-03-08T08:40:31;12.23;;;7.25;;
68216;SDS011;55037;52.354;4.992;2024-03-08T08:42:59;19.25;;;10.55;;
68216;SDS011;55037;52.354;4.992;2024-03-08T08:45:30;17.52;;;9.63;;
68216;SDS011;55037;52.354;4.992;2024-03-08T08:47:57;18.97;;;10.43;;
68216;SDS011;55037;52.354;4.992;2024-03-08T08:50:26;22.15;;;12.27;;
68216;SDS011;55037;52.354;4.992;2024-03-08T08:52:55;14.65;;;9.70;;
68216;SDS011;55037;52.354;4.992;2024-03-08T08:55:24;21.13;;;12.95;;
68216;SDS011;55037;52.354;4.992;2024-03-08T08:57:53;21.13;;;11.93;;
68216;SDS011;55037;52.354;4.992;2024-03-08T09:00:23;20.43;;;12.23;;
68216;SDS011;55037;52.354;4.992;2024-03-08T09:02:54;17.50;;;9.52;;
68216;SDS011;55037;52.354;4.992;2024-03-08T09:05:24;19.10;;;10.73;;
68216;SDS011;55037;52.354;4.992;2024-03-08T09:07:52;19.10;;;10.40;;
68216;SDS011;55037;52.354;4.992;2024-03-08T09:10:20;20.02;;;11.57;;
68216;SDS011;55037;52.354;4.992;2024-03-08T09:12:48;17.50;;;10.97;;
68216;SDS011;55037;52.354;4.992;2024-03-08T09:15:16;21.38;;;11.70;;
68216;SDS011;55037;52.354;4.992;2024-03-08T09:17:44;21.88;;;9.45;;
68216;SDS011;55037;52.354;4.992;2024-03-08T09:20:12;19.40;;;10.52;;
68216;SDS011;55037;52.354;4.992;2024-03-08T09:22:45;20.60;;;11.10;;
68216;SDS011;55037;52.354;4.992;2024-03-08T09:25:13;15.53;;;10.33;;
68216;SDS011;55037;52.354;4.992;2024-03-08T09:27:41;17.58;;;9.60;;
68216;SDS011;55037;52.354;4.992;2024-03-08T09:30:08;16.35;;;10.18;;
68216;SDS011;55037;52.354;4.992;2024-03-08T09:32:39;18.35;;;11.60;;
68216;SDS011;55037;52.354;4.992;2024-03-08T09:35:07;21.95;;;11.85;;
68216;SDS011;55037;52.354;4.992;2024-03-08T09:37:35;18.38;;;11.30;;
68216;SDS011;55037;52.354;4.992;2024-03-08T09:40:04;21.13;;;12.85;;
68216;SDS011;55037;52.354;4.992;2024-03-08T09:42:37;18.67;;;10.93;;
68216;SDS011;55037;52.354;4.992;2024-03-08T09:45:05;19.55;;;11.75;;
68216;SDS011;55037;52.354;4.992;2024-03-08T09:47:41;25.55;;;13.30;;
68216;SDS011;55037;52.354;4.992;2024-03-08T09:50:09;21.42;;;13.18;;
68216;SDS011;55037;52.354;4.992;2024-03-08T09:52:39;19.73;;;12.15;;
68216;SDS011;55037;52.354;4.992;2024-03-08T09:55:07;17.30;;;10.35;;
68216;SDS011;55037;52.354;4.992;2024-03-08T09:57:35;15.52;;;9.60;;
68216;SDS011;55037;52.354;4.992;2024-03-08T10:00:04;16.08;;;10.65;;
68216;SDS011;55037;52.354;4.992;2024-03-08T10:02:45;20.15;;;12.63;;
68216;SDS011;55037;52.354;4.992;2024-03-08T10:05:13;17.73;;;11.55;;
68216;SDS011;55037;52.354;4.992;2024-03-08T10:07:41;21.45;;;13.32;;
68216;SDS011;55037;52.354;4.992;2024-03-08T10:10:08;21.52;;;13.05;;
68216;SDS011;55037;52.354;4.992;2024-03-08T10:12:39;22.23;;;14.18;;
68216;SDS011;55037;52.354;4.992;2024-03-08T10:15:09;22.23;;;12.27;;
68216;SDS011;55037;52.354;4.992;2024-03-08T10:17:39;20.63;;;11.82;;
68216;SDS011;55037;52.354;4.992;2024-03-08T10:20:16;17.40;;;10.20;;
68216;SDS011;55037;52.354;4.992;2024-03-08T10:22:44;18.30;;;11.25;;
68216;SDS011;55037;52.354;4.992;2024-03-08T10:25:32;20.52;;;11.77;;
68216;SDS011;55037;52.354;4.992;2024-03-08T10:28:00;14.82;;;9.77;;
68216;SDS011;55037;52.354;4.992;2024-03-08T10:30:27;19.42;;;11.82;;
68216;SDS011;55037;52.354;4.992;2024-03-08T10:32:56;20.88;;;12.90;;
68216;SDS011;55037;52.354;4.992;2024-03-08T10:35:24;20.85;;;12.43;;
68216;SDS011;55037;52.354;4.992;2024-03-08T10:37:53;22.25;;;11.48;;
68216;SDS011;55037;52.354;4.992;2024-03-08T10:40:25;20.90;;;13.82;;
68216;SDS011;55037;52.354;4.992;2024-03-08T10:42:57;18.77;;;12.05;;
68216;SDS011;55037;52.354;4.992;2024-03-08T10:45:35;18.95;;;12.20;;
68216;SDS011;55037;52.354;4.992;2024-03-08T10:48:04;17.92;;;12.30;;
68216;SDS011;55037;52.354;4.992;2024-03-08T10:50:33;22.02;;;13.90;;
68216;SDS011;55037;52.354;4.992;2024-03-08T10:53:01;21.15;;;15.57;;
68216;SDS011;55037;52.354;4.992;2024-03-08T10:55:30;21.20;;;15.07;;
68216;SDS011;55037;52.354;4.992;2024-03-08T10:58:00;21.60;;;14.55;;
68216;SDS011;55037;52.354;4.992;2024-03-08T11:00:28;19.73;;;12.18;;
68216;SDS011;55037;52.354;4.992;2024-03-08T11:02:57;18.48;;;12.95;;
68216;SDS011;55037;52.354;4.992;2024-03-08T11:05:31;23.52;;;12.57;;
68216;SDS011;55037;52.354;4.992;2024-03-08T11:08:02;18.08;;;12.57;;
68216;SDS011;55037;52.354;4.992;2024-03-08T11:10:31;19.92;;;13.27;;
68216;SDS011;55037;52.354;4.992;2024-03-08T11:13:01;19.08;;;12.13;;
68216;SDS011;55037;52.354;4.992;2024-03-08T11:15:30;20.80;;;12.07;;
68216;SDS011;55037;52.354;4.992;2024-03-08T11:17:58;12.95;;;9.18;;
68216;SDS011;55037;52.354;4.992;2024-03-08T11:20:26;18.83;;;12.67;;
68216;SDS011;55037;52.354;4.992;2024-03-08T11:22:55;19.40;;;12.65;;
68216;SDS011;55037;52.354;4.992;2024-03-08T11:28:11;18.17;;;12.48;;
68216;SDS011;55037;52.354;4.992;2024-03-08T11:33:28;16.87;;;12.33;;
68216;SDS011;55037;52.354;4.992;2024-03-08T11:39:02;17.05;;;11.55;;
68216;SDS011;55037;52.354;4.992;2024-03-08T11:41:36;12.63;;;8.80;;
68216;SDS011;55037;52.354;4.992;2024-03-08T11:44:05;19.52;;;13.55;;
68216;SDS011;55037;52.354;4.992;2024-03-08T11:46:33;17.10;;;14.00;;
68216;SDS011;55037;52.354;4.992;2024-03-08T11:49:01;22.48;;;15.65;;
68216;SDS011;55037;52.354;4.992;2024-03-08T11:51:30;18.92;;;14.02;;
68216;SDS011;55037;52.354;4.992;2024-03-08T11:53:59;20.50;;;14.63;;
68216;SDS011;55037;52.354;4.992;2024-03-08T11:56:28;18.75;;;13.75;;
68216;SDS011;55037;52.354;4.992;2024-03-08T11:58:56;18.77;;;14.23;;
68216;SDS011;55037;52.354;4.992;2024-03-08T12:01:24;20.70;;;14.98;;
68216;SDS011;55037;52.354;4.992;2024-03-08T12:03:56;18.00;;;12.65;;
68216;SDS011;55037;52.354;4.992;2024-03-08T12:06:26;19.50;;;15.35;;
68216;SDS011;55037;52.354;4.992;2024-03-08T12:08:53;22.50;;;14.93;;
68216;SDS011;55037;52.354;4.992;2024-03-08T12:11:21;20.87;;;15.73;;
68216;SDS011;55037;52.354;4.992;2024-03-08T12:13:51;19.10;;;12.95;;
68216;SDS011;55037;52.354;4.992;2024-03-08T12:16:19;21.80;;;16.05;;
68216;SDS011;55037;52.354;4.992;2024-03-08T12:18:48;19.08;;;14.65;;
68216;SDS011;55037;52.354;4.992;2024-03-08T12:21:16;22.52;;;17.77;;
68216;SDS011;55037;52.354;4.992;2024-03-08T12:23:47;21.13;;;15.53;;
68216;SDS011;55037;52.354;4.992;2024-03-08T12:26:24;19.38;;;13.07;;
68216;SDS011;55037;52.354;4.992;2024-03-08T12:28:52;22.30;;;14.13;;
68216;SDS011;55037;52.354;4.992;2024-03-08T12:31:20;19.92;;;14.35;;
68216;SDS011;55037;52.354;4.992;2024-03-08T12:33:54;21.75;;;15.20;;
68216;SDS011;55037;52.354;4.992;2024-03-08T12:36:25;17.17;;;13.40;;
68216;SDS011;55037;52.354;4.992;2024-03-08T12:38:55;19.40;;;13.57;;
68216;SDS011;55037;52.354;4.992;2024-03-08T12:41:23;18.55;;;13.63;;
68216;SDS011;55037;52.354;4.992;2024-03-08T12:43:53;20.40;;;14.77;;
68216;SDS011;55037;52.354;4.992;2024-03-08T12:46:22;16.33;;;11.90;;
68216;SDS011;55037;52.354;4.992;2024-03-08T12:48:53;17.27;;;13.13;;
68216;SDS011;55037;52.354;4.992;2024-03-08T12:51:21;19.42;;;13.93;;
68216;SDS011;55037;52.354;4.992;2024-03-08T12:53:48;19.45;;;12.75;;
68216;SDS011;55037;52.354;4.992;2024-03-08T12:56:32;19.42;;;12.98;;
68216;SDS011;55037;52.354;4.992;2024-03-08T12:59:00;18.77;;;13.38;;
68216;SDS011;55037;52.354;4.992;2024-03-08T13:01:30;17.10;;;10.57;;
68216;SDS011;55037;52.354;4.992;2024-03-08T13:04:00;14.82;;;10.63;;
68216;SDS011;55037;52.354;4.992;2024-03-08T13:06:32;15.60;;;10.82;;
68216;SDS011;55037;52.354;4.992;2024-03-08T13:09:00;13.73;;;10.25;;
68216;SDS011;55037;52.354;4.992;2024-03-08T13:11:32;15.02;;;11.05;;
68216;SDS011;55037;52.354;4.992;2024-03-08T13:14:03;14.40;;;10.13;;
68216;SDS011;55037;52.354;4.992;2024-03-08T13:16:34;15.73;;;10.57;;
68216;SDS011;55037;52.354;4.992;2024-03-08T13:19:02;18.13;;;11.43;;
68216;SDS011;55037;52.354;4.992;2024-03-08T13:21:30;13.45;;;9.30;;
68216;SDS011;55037;52.354;4.992;2024-03-08T13:23:58;15.20;;;10.73;;
68216;SDS011;55037;52.354;4.992;2024-03-08T13:26:28;17.30;;;10.03;;
68216;SDS011;55037;52.354;4.992;2024-03-08T13:28:59;16.63;;;10.50;;
68216;SDS011;55037;52.354;4.992;2024-03-08T13:31:27;18.83;;;11.02;;
68216;SDS011;55037;52.354;4.992;2024-03-08T13:33:55;14.48;;;10.80;;
68216;SDS011;55037;52.354;4.992;2024-03-08T13:36:25;12.45;;;9.13;;
68216;SDS011;55037;52.354;4.992;2024-03-08T13:38:56;13.10;;;9.50;;
68216;SDS011;55037;52.354;4.992;2024-03-08T13:41:26;15.88;;;10.10;;
68216;SDS011;55037;52.354;4.992;2024-03-08T13:43:57;15.88;;;10.52;;
68216;SDS011;55037;52.354;4.992;2024-03-08T13:46:26;15.43;;;10.05;;
68216;SDS011;55037;52.354;4.992;2024-03-08T13:48:53;17.15;;;10.77;;
68216;SDS011;55037;52.354;4.992;2024-03-08T13:51:28;17.25;;;11.35;;
68216;SDS011;55037;52.354;4.992;2024-03-08T13:53:57;16.27;;;9.20;;
68216;SDS011;55037;52.354;4.992;2024-03-08T13:56:24;13.93;;;9.23;;
68216;SDS011;55037;52.354;4.992;2024-03-08T13:58:53;17.40;;;10.68;;
68216;SDS011;55037;52.354;4.992;2024-03-08T14:01:23;13.60;;;8.95;;
68216;SDS011;55037;52.354;4.992;2024-03-08T14:03:52;15.35;;;10.82;;
68216;SDS011;55037;52.354;4.992;2024-03-08T14:06:19;16.35;;;10.50;;
68216;SDS011;55037;52.354;4.992;2024-03-08T14:08:48;16.50;;;10.40;;
68216;SDS011;55037;52.354;4.992;2024-03-08T14:11:15;17.15;;;11.27;;
68216;SDS011;55037;52.354;4.992;2024-03-08T14:13:45;14.98;;;10.77;;
68216;SDS011;55037;52.354;4.992;2024-03-08T14:16:13;17.33;;;10.77;;
68216;SDS011;55037;52.354;4.992;2024-03-08T14:18:42;17.60;;;10.60;;
68216;SDS011;55037;52.354;4.992;2024-03-08T14:21:09;14.90;;;9.32;;
68216;SDS011;55037;52.354;4.992;2024-03-08T14:23:40;16.52;;;10.13;;
68216;SDS011;55037;52.354;4.992;2024-03-08T14:26:09;15.65;;;9.80;;
68216;SDS011;55037;52.354;4.992;2024-03-08T14:28:37;14.57;;;9.60;;
68216;SDS011;55037;52.354;4.992;2024-03-08T14:31:05;17.02;;;10.50;;
68216;SDS011;55037;52.354;4.992;2024-03-08T14:33:37;14.68;;;9.25;;
68216;SDS011;55037;52.354;4.992;2024-03-08T14:36:05;15.43;;;9.75;;
68216;SDS011;55037;52.354;4.992;2024-03-08T14:38:33;15.50;;;10.18;;
68216;SDS011;55037;52.354;4.992;2024-03-08T14:41:01;16.92;;;10.18;;
68216;SDS011;55037;52.354;4.992;2024-03-08T14:43:31;13.52;;;8.55;;
68216;SDS011;55037;52.354;4.992;2024-03-08T14:45:59;14.57;;;8.15;;